Time;durP1;ratioP1;P1;durP2;ratioP2;P2;SDS_P1;SDS_P2;PMS_P1;PMS_P2;Temp;Humidity;BMP_temperature;BMP_pressure;BME280_temperature;BME280_humidity;BME280_pressure;Samples;Min_cycle;Max_cycle;Signal;HPM_P1;HPM_P2
2021/09/05 00:00:38;;;;;;;;;;;;;;;;;;5015971;28;20013;-67
2021/09/05 00:03:05;;;;;;;;;;;;;;;;;;5016086;28;20002;-67
2021/09/05 00:05:32;;;;;;;;;;;;;;;;;;5016202;28;20018;-66
2021/09/05 00:07:59;;;;;;;;;;;;;;;;;;5015913;28;20019;-67
2021/09/05 00:10:26;;;;;;;;;;;;;;;;;;5015881;28;20477;-66
2021/09/05 00:12:52;;;;;;;;;;;;;;;;;;5015844;28;20006;-67
2021/09/05 00:15:19;;;;;;;;;;;;;;;;;;5016137;28;20002;-67
2021/09/05 00:17:46;;;;;;;;;;;;;;;;;;5015570;28;20025;-67
2021/09/05 00:20:13;;;;;;;;;;;;;;;;;;5015491;28;20002;-67
2021/09/05 00:22:40;;;;;;;;;;;;;;;;;;5015744;28;20385;-67
2021/09/05 00:25:07;;;;;;;;;;;;;;;;;;5015894;28;20327;-67
2021/09/05 00:27:34;;;;;;;;;;;;;;;;;;5015477;28;20029;-66
2021/09/05 00:30:01;;;;;;;;;;;;;;;;;;5015541;28;20458;-67
2021/09/05 00:32:28;;;;;;;;;;;;;;;;;;5015998;28;20010;-68
2021/09/05 00:34:55;;;;;;;;;;;;;;;;;;5016152;28;20006;-67
2021/09/05 00:37:22;;;;;;;;;;;;;;;;;;5016246;28;20018;-67
2021/09/05 00:39:49;;;;;;;;;;;;;;;;;;5015844;28;20057;-67
2021/09/05 00:42:16;;;;;;;;;;;;;;;;;;5017928;28;20002;-68
2021/09/05 00:44:42;;;;;;;;;;;;;;;;;;5020364;28;20021;-67
2021/09/05 00:47:09;;;;;;;;;;;;;;;;;;5019613;28;20023;-67
2021/09/05 00:49:36;;;;;;;;;;;;;;;;;;5021388;28;20002;-67
2021/09/05 00:52:03;;;;;;;;;;;;;;;;;;5019074;28;20089;-67
2021/09/05 00:54:30;;;;;;;;;;;;;;;;;;5018257;28;20457;-67
2021/09/05 00:56:57;;;;;;;;;;;;;;;;;;5015297;28;20025;-67
2021/09/05 00:59:24;;;;;;;;;;;;;;;;;;5015580;28;20002;-68
2021/09/05 01:01:51;;;;;;;;;;;;;;;;;;5015019;28;20006;-67
2021/09/05 01:04:18;;;;;;;;;;;;;;;;;;5015816;28;20026;-67
2021/09/05 01:06:45;;;;;;;;;;;;;;;;;;5015735;28;20018;-68
2021/09/05 01:09:12;;;;;;;;;;;;;;;;;;5015148;28;20013;-67
2021/09/05 01:11:38;;;;;;;;;;;;;;;;;;5015827;28;20003;-67
2021/09/05 01:14:05;;;;;;;;;;;;;;;;;;5018555;28;20500;-67
2021/09/05 01:16:32;;;;;;;;;;;;;;;;;;5019782;28;20028;-67
2021/09/05 01:18:59;;;;;;;;;;;;;;;;;;5019763;28;20002;-67
2021/09/05 01:21:26;;;;;;;;;;;;;;;;;;5018724;28;20009;-67
2021/09/05 01:23:53;;;;;;;;;;;;;;;;;;5019692;28;20002;-67
2021/09/05 01:26:20;;;;;;;;;;;;;;;;;;5018995;28;20022;-67
2021/09/05 01:28:47;;;;;;;;;;;;;;;;;;5018583;28;20002;-67
2021/09/05 01:31:14;;;;;;;;;;;;;;;;;;5014343;28;20009;-67
2021/09/05 01:33:41;;;;;;;;;;;;;;;;;;5014464;28;20009;-67
2021/09/05 01:36:08;;;;;;;;;;;;;;;;;;5014067;28;20006;-67
2021/09/05 01:38:34;;;;;;;;;;;;;;;;;;5014451;28;20018;-67
2021/09/05 01:41:01;;;;;;;;;;;;;;;;;;5013914;28;20476;-67
2021/09/05 01:43:28;;;;;;;;;;;;;;;;;;5013990;28;20006;-67
2021/09/05 01:45:55;;;;;;;;;;;;;;;;;;5014075;28;20030;-67
2021/09/05 01:48:22;;;;;;;;;;;;;;;;;;5013820;28;20485;-67
2021/09/05 01:50:49;;;;;;;;;;;;;;;;;;5014139;28;20006;-67
2021/09/05 01:53:16;;;;;;;;;;;;;;;;;;5014191;28;20003;-68
2021/09/05 01:55:43;;;;;;;;;;;;;;;;;;5014521;28;20003;-68
2021/09/05 01:58:10;;;;;;;;;;;;;;;;;;5030979;28;20091;-67
2021/09/05 02:00:37;;;;;;;;;;;;;;;;;;5031821;28;20441;-67
2021/09/05 02:03:03;;;;;;;;;;;;;;;;;;5021927;28;20002;-67
2021/09/05 02:05:30;;;;;;;;;;;;;;;;;;5014168;28;20029;-67
2021/09/05 02:07:57;;;;;;;;;;;;;;;;;;5013718;28;20018;-67
2021/09/05 02:10:25;;;;;;;;;;;;;;;;;;5013566;28;20009;-67
2021/09/05 02:12:52;;;;;;;;;;;;;;;;;;5013533;28;20076;-67
2021/09/05 02:15:18;;;;;;;;;;;;;;;;;;5014080;28;20006;-67
2021/09/05 02:17:45;;;;;;;;;;;;;;;;;;5013411;28;20024;-67
2021/09/05 02:20:12;;;;;;;;;;;;;;;;;;5013451;28;20483;-66
2021/09/05 02:22:40;;;;;;;;;;;;;;;;;;5013577;28;20006;-68
2021/09/05 02:25:07;;;;;;;;;;;;;;;;;;5013342;28;20343;-67
2021/09/05 02:27:34;;;;;;;;;;;;;;;;;;5013216;28;20470;-67
2021/09/05 02:30:01;;;;;;;;;;;;;;;;;;5013570;28;20003;-68
2021/09/05 02:32:28;;;;;;;;;;;;;;;;;;5013412;28;20006;-67
2021/09/05 02:34:55;;;;;;;;;;;;;;;;;;5013449;28;20371;-68
2021/09/05 02:37:22;;;;;;;;;;;;;;;;;;5013199;28;20029;-67
2021/09/05 02:39:49;;;;;;;;;;;;;;;;;;5013081;28;20002;-67
2021/09/05 02:42:15;;;;;;;;;;;;;;;;;;5012761;28;20009;-67
2021/09/05 02:44:42;;;;;;;;;;;;;;;;;;5013188;28;20002;-68
2021/09/05 02:47:09;;;;;;;;;;;;;;;;;;5012965;28;20509;-68
2021/09/05 02:49:36;;;;;;;;;;;;;;;;;;5013166;28;20002;-67
2021/09/05 02:52:05;;;;;;;;;;;;;;;;;;5012668;28;20002;-67
2021/09/05 02:54:32;;;;;;;;;;;;;;;;;;5012802;28;20045;-67
2021/09/05 02:56:59;;;;;;;;;;;;;;;;;;5012732;28;20029;-68
2021/09/05 02:59:26;;;;;;;;;;;;;;;;;;5012657;28;20065;-68
2021/09/05 03:01:53;;;;;;;;;;;;;;;;;;5012915;28;20010;-67
2021/09/05 03:04:20;;;;;;;;;;;;;;;;;;5012860;28;20002;-67
2021/09/05 03:06:47;;;;;;;;;;;;;;;;;;5012735;28;20405;-67
2021/09/05 03:09:13;;;;;;;;;;;;;;;;;;5012660;28;20002;-67
2021/09/05 03:11:40;;;;;;;;;;;;;;;;;;5012655;28;20025;-68
2021/09/05 03:14:07;;;;;;;;;;;;;;;;;;5012329;28;20007;-67
2021/09/05 03:16:34;;;;;;;;;;;;;;;;;;5012568;28;20018;-67
2021/09/05 03:19:01;;;;;;;;;;;;;;;;;;5012603;28;20339;-67
2021/09/05 03:21:28;;;;;;;;;;;;;;;;;;5012360;28;20009;-67
2021/09/05 03:23:55;;;;;;;;;;;;;;;;;;5012902;28;20093;-67
2021/09/05 03:26:22;;;;;;;;;;;;;;;;;;5012683;28;20373;-66
2021/09/05 03:28:49;;;;;;;;;;;;;;;;;;5012856;28;20009;-67
2021/09/05 03:31:16;;;;;;;;;;;;;;;;;;5012562;28;20002;-67
2021/09/05 03:33:43;;;;;;;;;;;;;;;;;;5019078;28;20002;-68
2021/09/05 03:36:09;;;;;;;;;;;;;;;;;;5019168;28;20013;-68
2021/09/05 03:38:36;;;;;;;;;;;;;;;;;;5019118;28;20404;-67
2021/09/05 03:41:03;;;;;;;;;;;;;;;;;;5019310;28;20009;-68
2021/09/05 03:43:30;;;;;;;;;;;;;;;;;;5019376;28;20002;-67
2021/09/05 03:45:57;;;;;;;;;;;;;;;;;;5019131;28;20485;-67
2021/09/05 03:48:24;;;;;;;;;;;;;;;;;;5018850;28;20022;-67
2021/09/05 03:50:51;;;;;;;;;;;;;;;;;;5018750;28;20002;-67
2021/09/05 03:53:18;;;;;;;;;;;;;;;;;;5019071;28;20453;-67
2021/09/05 03:55:45;;;;;;;;;;;;;;;;;;5018775;28;20002;-67
2021/09/05 03:58:12;;;;;;;;;;;;;;;;;;5018970;28;20018;-67
2021/09/05 04:00:39;;;;;;;;;;;;;;;;;;5018947;28;20009;-67
2021/09/05 04:03:05;;;;;;;;;;;;;;;;;;5018862;28;20002;-68
2021/09/05 04:05:32;;;;;;;;;;;;;;;;;;5018651;28;20618;-68
2021/09/05 04:08:14;;;;;;;;;;;;;;;;;;5018436;28;20018;-79
2021/09/05 04:10:41;;;;;;;;;;;;;;;;;;5018728;28;20008;-75
2021/09/05 04:13:08;;;;;;;;;;;;;;;;;;5019082;28;20013;-79
2021/09/05 04:15:35;;;;;;;;;;;;;;;;;;5018698;28;20002;-78
2021/09/05 04:18:01;;;;;;;;;;;;;;;;;;5018346;28;20018;-78
2021/09/05 04:20:28;;;;;;;;;;;;;;;;;;5018405;28;20025;-73
2021/09/05 04:22:55;;;;;;;;;;;;;;;;;;5018432;28;20010;-74
2021/09/05 04:25:22;;;;;;;;;;;;;;;;;;5018632;28;20021;-79
2021/09/05 04:27:49;;;;;;;;;;;;;;;;;;5018388;28;20385;-74
2021/09/05 04:30:17;;;;;;;;;;;;;;;;;;5018405;28;20037;-75
2021/09/05 04:32:44;;;;;;;;;;;;;;;;;;5018334;28;20009;-79
2021/09/05 04:35:11;;;;;;;;;;;;;;;;;;5018006;28;20006;-79
2021/09/05 04:37:38;;;;;;;;;;;;;;;;;;5018688;28;20022;-78
2021/09/05 04:40:05;;;;;;;;;;;;;;;;;;5018244;28;20489;-76
2021/09/05 04:42:33;;;;;;;;;;;;;;;;;;5018406;28;20006;-78
2021/09/05 04:45:00;;;;;;;;;;;;;;;;;;5014026;28;20006;-78
2021/09/05 04:47:27;;;;;;;;;;;;;;;;;;5015084;28;20280;-76
2021/09/05 04:49:54;;;;;;;;;;;;;;;;;;5014630;28;20002;-72
2021/09/05 04:52:21;;;;;;;;;;;;;;;;;;5015068;28;20014;-76
2021/09/05 04:54:48;;;;;;;;;;;;;;;;;;5015061;28;20378;-74
2021/09/05 04:57:15;;;;;;;;;;;;;;;;;;5014976;28;20520;-76
2021/09/05 04:59:42;;;;;;;;;;;;;;;;;;5015205;28;20003;-74
2021/09/05 05:02:09;;;;;;;;;;;;;;;;;;5014710;28;20025;-75
2021/09/05 05:04:35;;;;;;;;;;;;;;;;;;5014830;28;20183;-72
2021/09/05 05:07:02;;;;;;;;;;;;;;;;;;5015191;28;20022;-78
2021/09/05 05:09:29;;;;;;;;;;;;;;;;;;5014739;28;20010;-76
2021/09/05 05:11:56;;;;;;;;;;;;;;;;;;5014797;28;20009;-77
2021/09/05 05:14:23;;;;;;;;;;;;;;;;;;5014851;28;20002;-78
2021/09/05 05:16:50;;;;;;;;;;;;;;;;;;5014553;28;20018;-69
2021/09/05 05:19:17;;;;;;;;;;;;;;;;;;5014855;28;20013;-69
2021/09/05 05:21:44;;;;;;;;;;;;;;;;;;5014880;28;20002;-66
2021/09/05 05:24:11;;;;;;;;;;;;;;;;;;5015162;28;20006;-67
2021/09/05 05:26:38;;;;;;;;;;;;;;;;;;5014363;28;20033;-68
2021/09/05 05:29:05;;;;;;;;;;;;;;;;;;5014863;28;20381;-69
2021/09/05 05:31:31;;;;;;;;;;;;;;;;;;5014318;28;20009;-68
2021/09/05 05:33:58;;;;;;;;;;;;;;;;;;5014419;28;20002;-66
2021/09/05 05:36:25;;;;;;;;;;;;;;;;;;5014378;28;20487;-69
2021/09/05 05:38:52;;;;;;;;;;;;;;;;;;5014588;28;20002;-68
2021/09/05 05:41:19;;;;;;;;;;;;;;;;;;5014477;28;20025;-66
2021/09/05 05:43:46;;;;;;;;;;;;;;;;;;5014105;28;20002;-66
2021/09/05 05:46:13;;;;;;;;;;;;;;;;;;5013853;28;20504;-66
2021/09/05 05:48:40;;;;;;;;;;;;;;;;;;5032517;23;20018;-63
2021/09/05 05:51:07;;;;;;;;;;;;;;;;;;5013663;28;20465;-65
2021/09/05 05:53:34;;;;;;;;;;;;;;;;;;5013717;28;20006;-68
2021/09/05 05:56:01;;;;;;;;;;;;;;;;;;5013436;28;20002;-68
2021/09/05 05:58:28;;;;;;;;;;;;;;;;;;5013617;28;20025;-68
2021/09/05 06:00:55;;;;;;;;;;;;;;;;;;5013463;28;20007;-68
2021/09/05 06:03:22;;;;;;;;;;;;;;;;;;5013543;28;20480;-65
2021/09/05 06:05:49;;;;;;;;;;;;;;;;;;5013669;28;20018;-67
2021/09/05 06:08:16;;;;;;;;;;;;;;;;;;5013351;28;20018;-67
2021/09/05 06:10:43;;;;;;;;;;;;;;;;;;5013233;28;20029;-68
2021/09/05 06:13:10;;;;;;;;;;;;;;;;;;5013512;28;20009;-67
2021/09/05 06:15:37;;;;;;;;;;;;;;;;;;5013652;28;20009;-67
2021/09/05 06:18:04;;;;;;;;;;;;;;;;;;5012965;28;20489;-65
2021/09/05 06:20:31;;;;;;;;;;;;;;;;;;5013339;28;20416;-66
2021/09/05 06:22:58;;;;;;;;;;;;;;;;;;5013487;28;20002;-67
2021/09/05 06:25:25;;;;;;;;;;;;;;;;;;5013214;28;20003;-67
2021/09/05 06:27:52;;;;;;;;;;;;;;;;;;5012936;28;20030;-67
2021/09/05 06:30:19;;;;;;;;;;;;;;;;;;5012801;28;20002;-67
2021/09/05 06:32:46;;;;;;;;;;;;;;;;;;5013389;28;20009;-67
2021/09/05 06:35:13;;;;;;;;;;;;;;;;;;5013015;28;20470;-66
2021/09/05 06:37:40;;;;;;;;;;;;;;;;;;5013406;28;20019;-66
2021/09/05 06:40:07;;;;;;;;;;;;;;;;;;5014346;28;20002;-66
2021/09/05 06:42:34;;;;;;;;;;;;;;;;;;5016102;28;20009;-67
2021/09/05 06:45:00;;;;;;;;;;;;;;;;;;5016170;28;20008;-66
2021/09/05 06:47:27;;;;;;;;;;;;;;;;;;5012933;28;20022;-66
2021/09/05 06:49:54;;;;;;;;;;;;;;;;;;5012720;28;20009;-66
2021/09/05 06:52:21;;;;;;;;;;;;;;;;;;5012669;28;20002;-66
2021/09/05 06:54:48;;;;;;;;;;;;;;;;;;5012846;28;20006;-64
2021/09/05 06:57:15;;;;;;;;;;;;;;;;;;5012578;28;20018;-66
2021/09/05 06:59:42;;;;;;;;;;;;;;;;;;5013054;28;20002;-66
2021/09/05 07:02:09;;;;;;;;;;;;;;;;;;5012211;28;20009;-67
2021/09/05 07:04:36;;;;;;;;;;;;;;;;;;5012783;28;20482;-67
2021/09/05 07:07:03;;;;;;;;;;;;;;;;;;5011792;28;20026;-66
2021/09/05 07:09:30;;;;;;;;;;;;;;;;;;5012410;28;20002;-66
2021/09/05 07:11:57;;;;;;;;;;;;;;;;;;5012462;28;20009;-66
2021/09/05 07:14:24;;;;;;;;;;;;;;;;;;5012898;28;20009;-66
2021/09/05 07:16:51;;;;;;;;;;;;;;;;;;5011952;28;20003;-65
2021/09/05 07:19:18;;;;;;;;;;;;;;;;;;5012565;28;20002;-66
2021/09/05 07:21:45;;;;;;;;;;;;;;;;;;5012080;28;20025;-65
2021/09/05 07:24:12;;;;;;;;;;;;;;;;;;5012320;28;20002;-64
2021/09/05 07:26:39;;;;;;;;;;;;;;;;;;5012317;28;20025;-63
2021/09/05 07:29:06;;;;;;;;;;;;;;;;;;5012545;28;20002;-66
2021/09/05 07:31:33;;;;;;;;;;;;;;;;;;5011952;28;20010;-66
2021/09/05 07:34:00;;;;;;;;;;;;;;;;;;5012189;28;20450;-66
2021/09/05 07:36:27;;;;;;;;;;;;;;;;;;5012185;28;20002;-65
2021/09/05 07:38:54;;;;;;;;;;;;;;;;;;5012449;28;20019;-66
2021/09/05 07:41:21;;;;;;;;;;;;;;;;;;5012189;28;20025;-67
2021/09/05 07:43:48;;;;;;;;;;;;;;;;;;5012143;28;20002;-66
2021/09/05 07:46:15;;;;;;;;;;;;;;;;;;5012158;28;20014;-65
2021/09/05 07:48:42;;;;;;;;;;;;;;;;;;5011903;28;20409;-65
2021/09/05 07:51:09;;;;;;;;;;;;;;;;;;5011857;28;20077;-65
2021/09/05 07:53:35;;;;;;;;;;;;;;;;;;5012224;28;20009;-65
2021/09/05 07:56:02;;;;;;;;;;;;;;;;;;5012359;28;20002;-66
2021/09/05 07:58:29;;;;;;;;;;;;;;;;;;5011729;28;20037;-64
2021/09/05 08:00:56;;;;;;;;;;;;;;;;;;5011911;28;20003;-65
2021/09/05 08:03:23;;;;;;;;;;;;;;;;;;5012037;28;20223;-65
2021/09/05 08:05:50;;;;;;;;;;;;;;;;;;5011854;28;20010;-65
2021/09/05 08:08:17;;;;;;;;;;;;;;;;;;5012048;28;20022;-66
2021/09/05 08:10:44;;;;;;;;;;;;;;;;;;5011779;28;20006;-65
2021/09/05 08:13:11;;;;;;;;;;;;;;;;;;5012168;28;20458;-65
2021/09/05 08:15:38;;;;;;;;;;;;;;;;;;5011949;28;20010;-65
2021/09/05 08:18:05;;;;;;;;;;;;;;;;;;5012436;28;20033;-65
2021/09/05 08:20:31;;;;;;;;;;;;;;;;;;5015197;28;20009;-65
2021/09/05 08:22:58;;;;;;;;;;;;;;;;;;5015930;28;20003;-65
2021/09/05 08:25:25;;;;;;;;;;;;;;;;;;5015731;28;20002;-66
2021/09/05 08:27:52;;;;;;;;;;;;;;;;;;5015303;28;20112;-65
2021/09/05 08:30:19;;;;;;;;;;;;;;;;;;5015135;28;20009;-66
2021/09/05 08:32:46;;;;;;;;;;;;;;;;;;5015344;28;20516;-65
2021/09/05 08:35:13;;;;;;;;;;;;;;;;;;5015527;28;20002;-65
2021/09/05 08:37:40;;;;;;;;;;;;;;;;;;5015250;28;20026;-65
2021/09/05 08:40:07;;;;;;;;;;;;;;;;;;5015379;28;20346;-66
2021/09/05 08:42:34;;;;;;;;;;;;;;;;;;5015090;28;20497;-66
2021/09/05 08:45:01;;;;;;;;;;;;;;;;;;5015234;28;20002;-66
2021/09/05 08:47:28;;;;;;;;;;;;;;;;;;5014555;28;20416;-65
2021/09/05 08:49:55;;;;;;;;;;;;;;;;;;5015333;28;20013;-67
2021/09/05 08:52:22;;;;;;;;;;;;;;;;;;5015190;28;20009;-67
2021/09/05 08:54:49;;;;;;;;;;;;;;;;;;5015642;28;20002;-65
2021/09/05 08:57:17;;;;;;;;;;;;;;;;;;5014693;28;20018;-65
2021/09/05 08:59:44;;;;;;;;;;;;;;;;;;5014889;28;20077;-66
2021/09/05 09:02:10;;;;;;;;;;;;;;;;;;5014841;28;20025;-65
2021/09/05 09:04:37;;;;;;;;;;;;;;;;;;5014815;28;20002;-65
2021/09/05 09:07:04;;;;;;;;;;;;;;;;;;5014594;28;20021;-66
2021/09/05 09:09:31;;;;;;;;;;;;;;;;;;5014700;28;20006;-65
2021/09/05 09:12:00;;;;;;;;;;;;;;;;;;5014414;28;20009;-65
2021/09/05 09:14:27;;;;;;;;;;;;;;;;;;5014541;28;20002;-66
2021/09/05 09:16:54;;;;;;;;;;;;;;;;;;5014905;28;20009;-65
2021/09/05 09:19:20;;;;;;;;;;;;;;;;;;5014724;28;20002;-66
2021/09/05 09:21:47;;;;;;;;;;;;;;;;;;5013844;28;20013;-66
2021/09/05 09:24:18;;;;;;;;;;;;;;;;;;5014553;28;20006;-66
2021/09/05 09:26:44;;;;;;;;;;;;;;;;;;5014130;28;20018;-66
2021/09/05 09:29:11;;;;;;;;;;;;;;;;;;5014035;28;20009;-65
2021/09/05 09:31:38;;;;;;;;;;;;;;;;;;5013640;28;20003;-66
2021/09/05 09:34:06;;;;;;;;;;;;;;;;;;5014207;28;20385;-65
2021/09/05 09:36:33;;;;;;;;;;;;;;;;;;5014371;28;20002;-65
2021/09/05 09:39:00;;;;;;;;;;;;;;;;;;5014164;28;20018;-66
2021/09/05 09:41:27;;;;;;;;;;;;;;;;;;5013633;28;20009;-66
2021/09/05 09:43:54;;;;;;;;;;;;;;;;;;5014172;28;20393;-65
2021/09/05 09:46:21;;;;;;;;;;;;;;;;;;5014220;28;20002;-66
2021/09/05 09:48:48;;;;;;;;;;;;;;;;;;5013624;28;20022;-66
2021/09/05 09:51:15;;;;;;;;;;;;;;;;;;5013824;28;20006;-66
2021/09/05 09:53:42;;;;;;;;;;;;;;;;;;5013689;28;20005;-65
2021/09/05 09:56:09;;;;;;;;;;;;;;;;;;5013711;28;20115;-66
2021/09/05 09:58:35;;;;;;;;;;;;;;;;;;5013765;28;20018;-66
2021/09/05 10:01:02;;;;;;;;;;;;;;;;;;5013849;28;20002;-65
2021/09/05 10:03:29;;;;;;;;;;;;;;;;;;5013848;28;20002;-66
2021/09/05 10:05:56;;;;;;;;;;;;;;;;;;5013555;28;20009;-66
2021/09/05 10:08:23;;;;;;;;;;;;;;;;;;5013240;28;20026;-65
2021/09/05 10:10:50;;;;;;;;;;;;;;;;;;5013641;28;20006;-65
2021/09/05 10:13:17;;;;;;;;;;;;;;;;;;5013481;28;20002;-66
2021/09/05 10:15:44;;;;;;;;;;;;;;;;;;5013711;28;20012;-66
2021/09/05 10:18:11;;;;;;;;;;;;;;;;;;5013414;28;20393;-66
2021/09/05 10:20:38;;;;;;;;;;;;;;;;;;5013413;28;20002;-66
2021/09/05 10:23:05;;;;;;;;;;;;;;;;;;5013186;28;20009;-65
2021/09/05 10:25:32;;;;;;;;;;;;;;;;;;5013526;28;20006;-65
2021/09/05 10:28:00;;;;;;;;;;;;;;;;;;5013180;28;20021;-65
2021/09/05 10:30:27;;;;;;;;;;;;;;;;;;5013248;28;20006;-65
2021/09/05 10:32:54;;;;;;;;;;;;;;;;;;5012980;28;20009;-66
2021/09/05 10:35:21;;;;;;;;;;;;;;;;;;5013256;28;20008;-65
2021/09/05 10:37:47;;;;;;;;;;;;;;;;;;5012953;28;20018;-66
2021/09/05 10:40:14;;;;;;;;;;;;;;;;;;5012941;28;20002;-66
2021/09/05 10:42:41;;;;;;;;;;;;;;;;;;5012001;28;20009;-66
2021/09/05 10:45:08;;;;;;;;;;;;;;;;;;5013129;28;20002;-66
2021/09/05 10:47:35;;;;;;;;;;;;;;;;;;5012430;28;20022;-66
2021/09/05 10:50:02;;;;;;;;;;;;;;;;;;5012203;28;20002;-64
2021/09/05 10:52:29;;;;;;;;;;;;;;;;;;5011687;28;20002;-65
2021/09/05 10:54:56;;;;;;;;;;;;;;;;;;5011877;28;20009;-66
2021/09/05 10:57:23;;;;;;;;;;;;;;;;;;5011997;28;20029;-66
2021/09/05 10:59:50;;;;;;;;;;;;;;;;;;5012135;28;20026;-66
2021/09/05 11:02:17;;;;;;;;;;;;;;;;;;5011845;28;20010;-66
2021/09/05 11:04:44;;;;;;;;;;;;;;;;;;5011585;28;20002;-65
2021/09/05 11:07:10;;;;;;;;;;;;;;;;;;5011961;28;20026;-66
2021/09/05 11:09:37;;;;;;;;;;;;;;;;;;5012010;28;20009;-64
2021/09/05 11:12:04;;;;;;;;;;;;;;;;;;5011488;28;20421;-65
2021/09/05 11:14:31;;;;;;;;;;;;;;;;;;5011725;28;20002;-65
2021/09/05 11:16:58;;;;;;;;;;;;;;;;;;5011743;28;20002;-66
2021/09/05 11:19:25;;;;;;;;;;;;;;;;;;5011567;28;20005;-64
2021/09/05 11:21:52;;;;;;;;;;;;;;;;;;5011486;28;20009;-64
2021/09/05 11:24:19;;;;;;;;;;;;;;;;;;5011829;28;20002;-64
2021/09/05 11:26:46;;;;;;;;;;;;;;;;;;5011424;28;20001;-65
2021/09/05 11:29:13;;;;;;;;;;;;;;;;;;5011973;28;20018;-64
2021/09/05 11:31:40;;;;;;;;;;;;;;;;;;5011333;28;20009;-65
2021/09/05 11:34:06;;;;;;;;;;;;;;;;;;5011969;28;20002;-64
2021/09/05 11:36:33;;;;;;;;;;;;;;;;;;5011339;28;20002;-65
2021/09/05 11:39:00;;;;;;;;;;;;;;;;;;5011531;28;20493;-65
2021/09/05 11:41:27;;;;;;;;;;;;;;;;;;5011318;28;20009;-64
2021/09/05 11:43:55;;;;;;;;;;;;;;;;;;5011531;28;20002;-65
2021/09/05 11:46:22;;;;;;;;;;;;;;;;;;5011188;28;20002;-64
2021/09/05 11:48:48;;;;;;;;;;;;;;;;;;5005322;23;1078849;-70
2021/09/05 11:51:15;;;;;;;;;;;;;;;;;;4990258;28;20002;-69
2021/09/05 11:53:42;;;;;;;;;;;;;;;;;;4994705;28;19995;-69
2021/09/05 11:56:09;;;;;;;;;;;;;;;;;;4996688;28;20370;-68
2021/09/05 11:58:36;;;;;;;;;;;;;;;;;;4997005;28;20018;-70
2021/09/05 12:01:04;;;;;;;;;;;;;;;;;;4996367;28;20010;-69
2021/09/05 12:03:31;;;;;;;;;;;;;;;;;;4996718;28;20002;-69
2021/09/05 12:05:58;;;;;;;;;;;;;;;;;;4996451;28;20364;-69
2021/09/05 12:08:25;;;;;;;;;;;;;;;;;;4996410;28;20026;-69
2021/09/05 12:10:52;;;;;;;;;;;;;;;;;;4996239;28;20013;-69
2021/09/05 12:13:19;;;;;;;;;;;;;;;;;;4996386;28;20006;-69
2021/09/05 12:15:45;;;;;;;;;;;;;;;;;;4996515;28;20009;-68
2021/09/05 12:18:12;;;;;;;;;;;;;;;;;;4996330;28;20379;-69
2021/09/05 12:20:39;;;;;;;;;;;;;;;;;;4996285;28;20009;-69
2021/09/05 12:23:06;;;;;;;;;;;;;;;;;;4996315;28;20049;-68
2021/09/05 12:25:33;;;;;;;;;;;;;;;;;;4996050;28;20002;-69
2021/09/05 12:28:00;;;;;;;;;;;;;;;;;;4995778;28;20474;-69
2021/09/05 12:30:27;;;;;;;;;;;;;;;;;;4995916;28;20028;-69
2021/09/05 12:32:54;;;;;;;;;;;;;;;;;;4996079;28;20002;-69
2021/09/05 12:35:21;;;;;;;;;;;;;;;;;;4995947;28;20381;-70
2021/09/05 12:37:48;;;;;;;;;;;;;;;;;;4995923;28;20002;-69
2021/09/05 12:40:15;;;;;;;;;;;;;;;;;;4995596;28;20023;-69
2021/09/05 12:42:42;;;;;;;;;;;;;;;;;;4995824;28;20006;-69
2021/09/05 12:45:09;;;;;;;;;;;;;;;;;;4995958;28;20006;-69
2021/09/05 12:47:35;;;;;;;;;;;;;;;;;;4995686;28;20390;-69
2021/09/05 12:50:02;;;;;;;;;;;;;;;;;;4995624;28;20022;-69
2021/09/05 12:52:29;;;;;;;;;;;;;;;;;;4995827;28;20003;-70
2021/09/05 12:54:56;;;;;;;;;;;;;;;;;;4995488;28;20473;-68
2021/09/05 12:57:23;;;;;;;;;;;;;;;;;;4995666;28;20006;-68
2021/09/05 12:59:50;;;;;;;;;;;;;;;;;;4995925;28;20018;-69
2021/09/05 13:02:18;;;;;;;;;;;;;;;;;;4995397;28;20014;-69
2021/09/05 13:04:45;;;;;;;;;;;;;;;;;;4994486;28;20003;-69
2021/09/05 13:07:12;;;;;;;;;;;;;;;;;;4995418;28;20006;-69
2021/09/05 13:09:39;;;;;;;;;;;;;;;;;;4995302;28;20023;-68
2021/09/05 13:12:06;;;;;;;;;;;;;;;;;;4995003;28;20030;-69
2021/09/05 13:14:33;;;;;;;;;;;;;;;;;;4995359;28;20002;-68
2021/09/05 13:17:00;;;;;;;;;;;;;;;;;;4995368;28;20009;-69
2021/09/05 13:19:27;;;;;;;;;;;;;;;;;;4994730;28;20506;-68
2021/09/05 13:21:54;;;;;;;;;;;;;;;;;;4995311;28;20002;-69
2021/09/05 13:24:21;;;;;;;;;;;;;;;;;;4995339;28;20002;-69
2021/09/05 13:26:48;;;;;;;;;;;;;;;;;;4995199;28;20009;-69
2021/09/05 13:29:14;;;;;;;;;;;;;;;;;;4994825;28;20026;-69
2021/09/05 13:31:41;;;;;;;;;;;;;;;;;;4994783;28;20480;-68
2021/09/05 13:34:08;;;;;;;;;;;;;;;;;;4994998;28;20003;-69
2021/09/05 13:36:35;;;;;;;;;;;;;;;;;;4995079;28;20010;-69
2021/09/05 13:39:02;;;;;;;;;;;;;;;;;;4994854;28;20018;-68
2021/09/05 13:41:29;;;;;;;;;;;;;;;;;;4994806;28;20010;-69
2021/09/05 13:43:56;;;;;;;;;;;;;;;;;;4995146;28;20009;-68
2021/09/05 13:46:23;;;;;;;;;;;;;;;;;;4994609;28;20019;-68
2021/09/05 13:48:50;;;;;;;;;;;;;;;;;;4994320;28;20033;-68
2021/09/05 13:51:17;;;;;;;;;;;;;;;;;;4994951;28;20355;-69
2021/09/05 13:53:44;;;;;;;;;;;;;;;;;;4994501;28;20013;-68
2021/09/05 13:56:11;;;;;;;;;;;;;;;;;;4994620;28;20053;-68
2021/09/05 13:58:38;;;;;;;;;;;;;;;;;;4994884;28;20025;-69
2021/09/05 14:01:05;;;;;;;;;;;;;;;;;;4994581;28;20057;-69
2021/09/05 14:03:32;;;;;;;;;;;;;;;;;;4994521;28;20462;-68
2021/09/05 14:05:59;;;;;;;;;;;;;;;;;;4994510;28;20272;-69
2021/09/05 14:08:25;;;;;;;;;;;;;;;;;;4994511;28;20049;-69
2021/09/05 14:10:52;;;;;;;;;;;;;;;;;;4994321;28;20006;-68
2021/09/05 14:13:19;;;;;;;;;;;;;;;;;;4994361;28;20035;-68
2021/09/05 14:15:46;;;;;;;;;;;;;;;;;;4993846;28;20381;-69
2021/09/05 14:18:13;;;;;;;;;;;;;;;;;;4993947;28;20013;-69
2021/09/05 14:20:40;;;;;;;;;;;;;;;;;;4994077;28;20002;-69
2021/09/05 14:23:07;;;;;;;;;;;;;;;;;;4994139;28;20009;-68
2021/09/05 14:25:34;;;;;;;;;;;;;;;;;;4994379;28;20003;-68
2021/09/05 14:28:03;;;;;;;;;;;;;;;;;;4993952;28;20386;-68
2021/09/05 14:30:41;;;;;;;;;;;;;;;;;;4993383;28;20018;-69
2021/09/05 14:33:35;;;;;;;;;;;;;;;;;;4993712;28;20002;-68
2021/09/05 14:50:12;;;;;;;;;;;;;;;;;;4991501;28;20061;-68
2021/09/05 14:55:23;;;;;;;;;;;;;;;;;;4953546;28;20007;-68
2021/09/05 14:57:50;;;;;;;;;;;;;;;;;;4973926;28;20010;-69
2021/09/05 15:00:17;;;;;;;;;;;;;;;;;;4973643;28;20019;-68
2021/09/05 15:02:47;;;;;;;;;;;;;;;;;;4974095;28;20007;-67
2021/09/05 15:05:31;;;;;;;;;;;;;;;;;;4973958;28;20117;-69
2021/09/05 15:11:01;;;;;;;;;;;;;;;;;;4918425;28;20590;-68
2021/09/05 15:13:28;;;;;;;;;;;;;;;;;;4974040;28;20002;-69
2021/09/05 15:15:55;;;;;;;;;;;;;;;;;;4974332;28;20007;-68
2021/09/05 15:18:22;;;;;;;;;;;;;;;;;;4973988;28;20010;-68
2021/09/05 15:20:49;;;;;;;;;;;;;;;;;;4973463;28;20003;-68
2021/09/05 15:23:18;;;;;;;;;;;;;;;;;;4973118;28;20010;-68
2021/09/05 15:25:45;;;;;;;;;;;;;;;;;;4973647;28;20351;-68
2021/09/05 15:28:14;;;;;;;;;;;;;;;;;;4972784;28;20489;-68
2021/09/05 15:30:45;;;;;;;;;;;;;;;;;;4973239;28;20498;-70
2021/09/05 15:36:13;;;;;;;;;;;;;;;;;;4973087;28;19998;-69
2021/09/05 15:50:17;;;;;;;;;;;;;;;;;;4973100;28;20110;-68
2021/09/05 15:55:41;;;;;;;;;;;;;;;;;;4938404;28;20105;-68
2021/09/05 15:58:11;;;;;;;;;;;;;;;;;;4972873;28;20123;-68
2021/09/05 16:00:43;;;;;;;;;;;;;;;;;;4973252;28;20339;-68
2021/09/05 16:03:17;;;;;;;;;;;;;;;;;;4973412;28;20009;-68
2021/09/05 16:05:59;;;;;;;;;;;;;;;;;;4973319;28;20002;-68
2021/09/05 16:16:41;;;;;;;;;;;;;;;;;;4972743;28;20034;-69
2021/09/05 16:19:08;;;;;;;;;;;;;;;;;;4972894;28;20487;-68
2021/09/05 16:21:35;;;;;;;;;;;;;;;;;;4973865;28;20010;-66
2021/09/05 16:24:02;;;;;;;;;;;;;;;;;;4974592;28;20011;-66
2021/09/05 16:26:29;;;;;;;;;;;;;;;;;;4974007;28;20459;-66
2021/09/05 16:29:00;;;;;;;;;;;;;;;;;;4973920;28;20029;-66
2021/09/05 16:31:32;;;;;;;;;;;;;;;;;;4973520;28;20479;-66
2021/09/05 16:34:00;;;;;;;;;;;;;;;;;;4976130;28;20042;-66
2021/09/05 16:36:42;;;;;;;;;;;;;;;;;;4973680;28;20054;-66
2021/09/05 16:41:54;;;;;;;;;;;;;;;;;;4980980;28;19993;-69
2021/09/05 16:44:21;;;;;;;;;;;;;;;;;;4976865;28;20002;-68
2021/09/05 16:46:48;;;;;;;;;;;;;;;;;;4976460;28;20378;-68
2021/09/05 16:49:15;;;;;;;;;;;;;;;;;;4976086;28;20033;-68
2021/09/05 16:51:42;;;;;;;;;;;;;;;;;;4976106;28;20003;-68
2021/09/05 16:54:08;;;;;;;;;;;;;;;;;;4976074;28;20481;-68
2021/09/05 16:56:35;;;;;;;;;;;;;;;;;;4975610;28;20003;-68
2021/09/05 16:59:02;;;;;;;;;;;;;;;;;;4975805;28;20026;-69
2021/09/05 17:01:29;;;;;;;;;;;;;;;;;;4975731;28;20375;-69
2021/09/05 17:03:56;;;;;;;;;;;;;;;;;;4976106;28;20010;-68
2021/09/05 17:06:23;;;;;;;;;;;;;;;;;;4975877;28;20003;-68
2021/09/05 17:08:50;;;;;;;;;;;;;;;;;;4976210;28;20026;-66
2021/09/05 17:11:17;;;;;;;;;;;;;;;;;;4976598;28;20003;-66
2021/09/05 17:13:44;;;;;;;;;;;;;;;;;;4976475;28;20003;-66
2021/09/05 17:16:11;;;;;;;;;;;;;;;;;;4976704;28;20029;-67
2021/09/05 17:18:38;;;;;;;;;;;;;;;;;;4976208;28;20019;-65
2021/09/05 17:21:04;;;;;;;;;;;;;;;;;;4976597;28;20358;-66
2021/09/05 17:23:31;;;;;;;;;;;;;;;;;;4976219;28;20003;-65
2021/09/05 17:25:58;;;;;;;;;;;;;;;;;;4976453;28;20002;-66
2021/09/05 17:28:25;;;;;;;;;;;;;;;;;;4975937;28;20501;-66
2021/09/05 17:30:52;;;;;;;;;;;;;;;;;;4976232;28;20002;-65
2021/09/05 17:33:19;;;;;;;;;;;;;;;;;;4976533;28;20131;-67